Boyd Deep Canyon Reserve, California Weather observations

Data are for 10 minute period ending at time listed.
 Day   Time   Solar   Ave.   Ave.  Ave.  Vector  Max.   Baro.   Total    
  of    of     Rad.   Air    Rel.  Wind   Wind   Wind  Press.  Precip.   
Year   Day            Temp.  Hum.  Speed  Dir.   Gust                    
2015   (PST)  Kw/m2    F      %     mph   deg.    mph    mb.     in.     
-------------------------------------------------------------------------
 149   14:00   0.88   94.5    13    8.8    55    14.2   975.8    0.00 
 149   14:10   0.83   94.1    13    8.3    60    15.1   975.7    0.00 
 149   14:20   0.83   94.2    13    8.3    56    17.1   975.6    0.00 
 149   14:30   0.80   94.1    13    7.2    56    13.4   975.5    0.00 
 149   14:40   0.80   94.5    14    9.4    55    14.6   975.4    0.00 
 149   14:50   0.70   93.7    14    7.5    65    13.3   975.3    0.00 
 149   15:00   0.73   94.2    14    7.9    62    12.9   975.2    0.00 
 149   15:10   0.70   94.5    14    6.6    55    14.2   975.1    0.00 
 149   15:20   0.64   94.6    14    8.0    62    13.3   975.1    0.00 
 149   15:30   0.63   94.5    14    6.2    71    13.7   975.0    0.00 
 149   15:40   0.59   94.3    14    7.1    70    12.1   975.0    0.00 
 149   15:50   0.56   94.2    14    7.4    63    12.0   974.9    0.00 
 149   16:00   0.52   94.3    14    6.8    62    10.5   974.8    0.00 
 149   16:10   0.49   94.2    14    6.2    75    10.7   974.7    0.00 
 149   16:20   0.45   94.3    15    5.6    70    10.7   974.6    0.00 
 149   16:30   0.43   93.8    15    7.3    76    12.1   974.6    0.00 
 149   16:40   0.40   94.2    16    6.1    62    11.8   974.5    0.00 
 149   16:50   0.25   93.7    16    5.9    76     9.9   974.4    0.00 
 149   17:00   0.18   93.3    16    5.5    78     8.7   974.3    0.00 
 149   17:10   0.23   93.0    16    5.7    82    10.2   974.2    0.00 
 149   17:20   0.23   93.2    16    5.8    77    11.2   974.2    0.00 
 149   17:30   0.24   93.2    16    7.7    73    12.3   974.2    0.00 
 149   17:40   0.16   93.0    16    6.7    64    11.5   974.2    0.00 
 149   17:50   0.06   92.4    16    8.6    57    12.3   974.2    0.00 
 149   18:00   0.05   92.0    16    6.5    66    10.9   974.2    0.00 
 149   18:10   0.04   91.7    17    7.3    66    10.7   974.1    0.00 
 149   18:20   0.03   91.5    17    4.3    81     7.6   974.2    0.00 
 149   18:30   0.03   91.2    18    5.2    84     8.4   974.2    0.00 
 149   18:40   0.01   90.8    19    6.4    79    10.8   974.2    0.00 
 149   18:50   0.00   90.6    19    4.4    93     8.1   974.2    0.00 
 149   19:00   0.00   90.5    20    4.2    82     6.0   974.2    0.00 
 149   19:10   0.00   90.4    20    3.5    82     5.8   974.2    0.00 
 149   19:20   0.00   90.2    20    2.1    81     4.2   974.2    0.00 
 149   19:30   0.00   90.0    20    2.0   136     4.1   974.3    0.00 
 149   19:40   0.00   89.5    20    2.2   221     3.1   974.3    0.00 
 149   19:50   0.00   89.4    19    1.5   246     2.4   974.5    0.00 
 149   20:00   0.00   88.9    20    0.3     6     1.2   974.5    0.00 
 149   20:10   0.00   88.2    20    0.5   283     1.6   974.7    0.00 
 149   20:20   0.00   88.6    20    0.9   302     2.0   974.8    0.00 
 149   20:30   0.00   88.0    20    0.6    40     1.8   974.8    0.00 
 149   20:40   0.00   87.9    20    1.8   110     4.8   974.9    0.00 
 149   20:50   0.00   89.2    20    3.1    90     5.8   975.0    0.00 
 149   21:00   0.00   88.8    20    1.7    32     4.5   975.1    0.00 
 149   21:10   0.00   87.2    22    2.7   358     4.6   975.3    0.00 
 149   21:20   0.00   86.4    23    2.9     4     4.2   975.3    0.00 
 149   21:30   0.00   86.1    23    1.0    93     2.3   975.4    0.00 
 149   21:40   0.00   85.9    23    0.6   224     2.2   975.5    0.00 
 149   21:50   0.00   85.4    23    2.1   221     3.5   975.6    0.00 
 149   22:00   0.00   85.2    23    0.9   349     2.8   975.6    0.00 
 149   22:10   0.00   84.7    24    3.0    51     4.7   975.7    0.00 
 149   22:20   0.00   85.1    25    1.1    56     3.3   975.7    0.00 
 149   22:30   0.00   84.5    25    1.7    83     3.4   975.9    0.00 
 149   22:40   0.00   83.9    26    1.2   201     2.0   976.0    0.00 
 149   22:50   0.00   83.6    26    1.5   200     2.7   976.0    0.00 
 149   23:00   0.00   83.0    26    2.5   188     3.1   976.0    0.00 
 149   23:10   0.00   83.8    24    3.8   201     5.9   976.0    0.00 
 149   23:20   0.00   84.7    21    4.6   215     6.2   976.1    0.00 
 149   23:30   0.00   84.7    21    3.0   217     5.4   976.1    0.00 
 149   23:40   0.00   84.3    21    3.2   218     5.7   976.1    0.00 
 149   23:50   0.00   83.6    22    1.5   196     4.1   976.1    0.00 
 150    0:00   0.00   83.5    22    4.7   200     7.2   976.0    0.00 
 150    0:10   0.00   83.9    22    4.9   200     8.1   976.0    0.00 
 150    0:20   0.00   84.1    21    5.4   198     7.7   975.9    0.00 
 150    0:30   0.00   84.0    22    6.6   207    10.4   975.9    0.00 
 150    0:40   0.00   84.0    22    7.2   220    10.6   975.9    0.00 
 150    0:50   0.00   84.0    22    8.0   220    10.7   975.8    0.00 
 150    1:00   0.00   83.7    22    5.6   205     9.3   975.8    0.00 
 150    1:10   0.00   83.6    22    7.2   214    13.4   975.6    0.00 
 150    1:20   0.00   83.5    22    8.9   221    14.0   975.6    0.00 
 150    1:30   0.00   83.6    22    7.4   211    13.8   975.5    0.00 
 150    1:40   0.00   83.5    22    6.6   203     9.9   975.5    0.00 
 150    1:50   0.00   83.2    22    6.4   209     9.5   975.5    0.00 
 150    2:00   0.00   82.9    22    6.4   201     9.1   975.6    0.00 
 150    2:10   0.00   82.8    22    5.5   216     8.6   975.6    0.00 
 150    2:20   0.00   82.5    22    4.4   197     6.9   975.6    0.00 
 150    2:30   0.00   82.4    23    4.3   185     7.1   975.6    0.00 
 150    2:40   0.00   82.3    23    4.0   197     6.9   975.6    0.00 
 150    2:50   0.00   82.0    23    4.4   199     8.2   975.6    0.00 
 150    3:00   0.00   82.0    23    5.2   206    10.3   975.6    0.00 
 150    3:10   0.00   81.8    23    5.2   188     8.5   975.6    0.00 
 150    3:20   0.00   81.8    23    5.0   195     8.3   975.7    0.00 
 150    3:30   0.00   81.7    23    3.9   186     7.2   975.8    0.00 
 150    3:40   0.00   81.7    23    5.4   200     9.8   975.8    0.00 
 150    3:50   0.00   81.5    23    7.5   211    13.4   975.9    0.00 
 150    4:00   0.00   81.7    23    7.8   209    11.3   975.9    0.00 
 150    4:10   0.00   81.7    23    7.6   216    12.9   976.0    0.00 
 150    4:20   0.00   81.6    23    8.4   223    12.6   976.0    0.00 
 150    4:30   0.00   81.2    23    5.1   208     8.2   976.0    0.00 
 150    4:40   0.00   81.0    23    4.7   210     8.3   976.1    0.00 
 150    4:50   0.01   80.3    24    1.9   104     5.8   976.3    0.00 
 150    5:00   0.01   77.4    29    2.4    56     3.5   976.4    0.00 
 150    5:10   0.03   76.8    32    2.1    61     3.4   976.6    0.00 
 150    5:20   0.04   76.8    32    1.5    58     2.6   976.8    0.00 
 150    5:30   0.07   77.2    32    2.2    63     3.0   976.9    0.00 
 150    5:40   0.10   78.2    31    2.4    71     3.9   977.0    0.00 
 150    5:50   0.12   78.7    30    3.4    74     5.1   977.1    0.00 
 150    6:00   0.15   79.4    29    1.9    60     3.7   977.1    0.00 
 150    6:10   0.17   80.4    28    1.4    23     2.6   977.2    0.00 
 150    6:20   0.19   80.6    28    0.9     2     1.8   977.2    0.00 
 150    6:30   0.24   81.6    27    1.5    21     2.9   977.3    0.00 
 150    6:40   0.32   82.0    26    2.2    31     4.0   977.4    0.00 
 150    6:50   0.36   82.9    25    2.2    41     3.5   977.4    0.00 
 150    7:00   0.40   83.1    25    2.1   307     3.4   977.5    0.00 
 150    7:10   0.42   84.7    24    2.1    56     5.3   977.5    0.00 
 150    7:20   0.46   84.3    23    2.0    72     5.0   977.5    0.00 
 150    7:30   0.49   84.6    24    4.9     1     8.3   977.5    0.00 
 150    7:40   0.53   83.9    27    5.7   359     8.0   977.6    0.00 
 150    7:50   0.56   83.6    28    6.8     5     9.3   977.7    0.00 
 150    8:00   0.59   83.3    28    6.9   354     9.0   977.7    0.00 
 150    8:10   0.63   83.5    28    6.1   351     8.3   977.9    0.00 
 150    8:20   0.64   84.7    26    5.2    27     7.9   977.9    0.00 
 150    8:30   0.66   85.2    24    4.3    71     7.7   978.0    0.00 
 150    8:40   0.64   85.4    24    4.7    56    11.8   978.0    0.00 
 150    8:50   0.71   86.6    23    3.8   355     7.0   977.9    0.00 
 150    9:00   0.73   86.4    23    3.9   355     8.2   978.0    0.00 
 150    9:10   0.75   86.8    23    5.7     4     8.8   978.0    0.00 
 150    9:20   0.80   86.8    24    6.5    13     9.8   978.1    0.00 
 150    9:30   0.79   87.2    23    5.3   350     9.3   978.1    0.00 
 150    9:40   0.76   87.7    23    5.7     3    10.4   978.2    0.00 
 150    9:50   0.82   88.1    23    5.2   349    10.0   978.2    0.00 
 150   10:00   0.83   88.4    22    4.4   349     9.1   978.2    0.00 
 150   10:10   0.87   89.0    22    5.7     8     9.1   978.3    0.00 
 150   10:20   0.93   89.2    21    5.9    27    11.3   978.3    0.00 
 150   10:30   0.93   89.4    19    5.6    74     9.6   978.4    0.00 
 150   10:40   0.93   89.4    19    6.9    71    12.5   978.3    0.00 
 150   10:50   0.97   90.2    18    7.8    60    12.3   978.2    0.00 
 150   11:00   0.93   90.6    17    4.7    59    10.4   978.1    0.00 
 150   11:10   0.99   91.5    15    4.9    64     9.2   978.1    0.00 
 150   11:20   1.03   92.0    14    3.9    81     8.7   978.0    0.00 
 150   11:30   1.01   92.2    13    4.6    82     9.9   977.9    0.00 
 150   11:40   0.95   92.1    12    5.8    75     9.2   977.8    0.00 
 150   11:50   0.95   92.4    13    6.0    72     9.6   977.8    0.00 
 150   12:00   0.96   92.5    13    5.1    69    10.6   977.8    0.00 
 150   12:10   0.94   92.7    14    4.1    46    10.9   977.7    0.00 
 150   12:20   0.91   92.9    14    3.8    65     8.6   977.6    0.00 
 150   12:30   1.01   92.9    14    5.5    77    11.0   977.5    0.00 
 150   12:40   0.99   93.3    14    6.7    77    12.1   977.4    0.00 
 150   12:50   0.93   93.6    13    5.8    83    13.2   977.3    0.00 
 150   13:00   0.97   93.8    13    6.6    61    11.5   977.2    0.00 
 150   13:10   0.93   94.2    13    5.8    58    10.8   977.1    0.00 
 150   13:20   0.88   94.7    12    6.3    79    10.7   977.0    0.00 
 150   13:30   0.92   95.0    12    5.0    54    11.5   976.9    0.00 
 150   13:40   0.88   95.0    12    3.8    65    10.3   976.9    0.00 
 150   13:50   0.85   95.1    12    4.4    72    10.4   976.7    0.00 

Return to Boyd Deep Canyon Reserve graphs page.


Western Regional Climate Center,wrcc@dri.edu